Time;durP1;ratioP1;P1;durP2;ratioP2;P2;SDS_P1;SDS_P2;PMS_P1;PMS_P2;Temp;Humidity;BMP_temperature;BMP_pressure;BME280_temperature;BME280_humidity;BME280_pressure;Samples;Min_cycle;Max_cycle;Signal;HPM_P1;HPM_P2
2022/02/02 00:01:27;;;;;;;;;;;;;;;31.06;16.19;100011.09;5071661;28;830;-44
2022/02/02 00:03:55;;;;;;;;;;;;;;;31.01;16.29;100017.19;5076682;28;850;-45
2022/02/02 00:06:39;;;;;;;;;;;;;;;31.02;16.35;100018.03;5076874;28;841;-45
2022/02/02 00:09:11;;;;;;;;;;;;;;;30.96;16.45;100008.91;5077037;28;857;-45
2022/02/02 00:16:48;;;;;;;;;;;;;;;31.01;16.28;100000.09;5075850;28;1142;-45
2022/02/02 00:21:57;;;;;;;;;;;;;;;30.97;16.41;99991.56;5071045;28;670;-45
2022/02/02 00:27:07;;;;;;;;;;;;;;;30.94;16.38;99994.72;5076988;28;798;-45
2022/02/02 00:29:37;;;;;;;;;;;;;;;30.88;16.64;99991.03;5079531;28;828;-45
2022/02/02 00:32:13;;;;;;;;;;;;;;;30.97;16.23;99988.00;5076043;28;1031;-45
2022/02/02 00:34:38;;;;;;;;;;;;;;;30.91;16.51;99990.56;5076929;28;758;-45
2022/02/02 00:37:03;;;;;;;;;;;;;;;30.87;16.58;99986.66;5076548;28;1955;-45
2022/02/02 00:39:29;;;;;;;;;;;;;;;30.91;16.45;99987.84;5076626;28;809;-44
2022/02/02 00:41:56;;;;;;;;;;;;;;;30.82;16.52;99981.06;5076390;28;762;-44
2022/02/02 00:44:21;;;;;;;;;;;;;;;30.74;16.65;99989.50;5069970;28;892;-45
2022/02/02 00:46:47;;;;;;;;;;;;;;;30.66;16.68;99982.50;5076916;28;742;-44
2022/02/02 00:49:13;;;;;;;;;;;;;;;30.66;16.62;99966.22;5076005;28;940;-45
2022/02/02 00:51:49;;;;;;;;;;;;;;;30.62;16.62;99967.69;5076597;28;754;-44
2022/02/02 00:54:16;;;;;;;;;;;;;;;30.64;16.71;99957.44;5076571;28;814;-44
2022/02/02 00:56:41;;;;;;;;;;;;;;;30.65;16.57;99956.38;5075687;28;1894;-44
2022/02/02 00:59:06;;;;;;;;;;;;;;;30.63;16.65;99953.91;5075299;28;897;-44
2022/02/02 01:01:32;;;;;;;;;;;;;;;30.56;16.56;99945.03;5076377;28;830;-45
2022/02/02 01:03:57;;;;;;;;;;;;;;;30.55;16.50;99946.06;5076073;28;766;-45
2022/02/02 01:06:24;;;;;;;;;;;;;;;30.45;16.67;99940.34;5076146;28;855;-44
2022/02/02 01:09:09;;;;;;;;;;;;;;;30.43;16.70;99938.69;5075650;28;829;-44
2022/02/02 01:29:35;;;;;;;;;;;;;;;30.39;16.77;99926.63;5073419;28;859;-44
2022/02/02 01:32:01;;;;;;;;;;;;;;;30.45;16.71;99924.06;5076139;28;738;-44
2022/02/02 01:34:26;;;;;;;;;;;;;;;30.48;16.57;99924.44;5074210;28;797;-43
2022/02/02 01:36:51;;;;;;;;;;;;;;;30.48;16.64;99927.13;5079996;28;1955;-43
2022/02/02 01:39:18;;;;;;;;;;;;;;;30.49;16.64;99917.13;5079798;28;831;-43
2022/02/02 01:41:45;;;;;;;;;;;;;;;30.51;16.79;99909.59;5079592;28;1470;-45
2022/02/02 01:44:52;;;;;;;;;;;;;;;30.55;16.63;99914.31;5079397;28;904;-46
2022/02/02 01:47:03;;;;;;;;;;;;;;;30.56;16.70;99907.03;5075168;28;1351;-45
2022/02/02 01:57:27;;;;;;;;;;;;;;;30.60;16.67;99921.78;5062705;28;1906;-44
2022/02/02 01:59:53;;;;;;;;;;;;;;;30.57;16.68;99919.53;5059085;28;834;-44
2022/02/02 02:02:18;;;;;;;;;;;;;;;30.58;16.68;99914.94;5079312;28;785;-44
2022/02/02 02:04:43;;;;;;;;;;;;;;;30.57;16.75;99911.38;5079571;28;853;-44
2022/02/02 02:07:09;;;;;;;;;;;;;;;30.59;16.58;99906.56;5079685;28;1597;-44
2022/02/02 02:09:34;;;;;;;;;;;;;;;30.58;16.68;99909.50;5079453;28;830;-44
2022/02/02 02:12:01;;;;;;;;;;;;;;;30.57;16.55;99911.38;5078846;28;761;-44
2022/02/02 02:14:52;;;;;;;;;;;;;;;30.55;16.70;99903.47;5057808;28;858;-44
2022/02/02 02:17:18;;;;;;;;;;;;;;;30.55;16.74;99903.47;5078383;28;1897;-44
2022/02/02 02:19:48;;;;;;;;;;;;;;;30.54;16.81;99906.41;5079116;28;1521;-44
2022/02/02 02:22:15;;;;;;;;;;;;;;;30.45;16.70;99900.47;5061863;28;845;-44
2022/02/02 02:24:42;;;;;;;;;;;;;;;30.37;16.83;99904.31;5078815;28;798;-44
2022/02/02 02:27:08;;;;;;;;;;;;;;;30.27;16.92;99912.13;5078723;28;881;-44
2022/02/02 02:35:43;;;;;;;;;;;;;;;29.90;17.27;99904.75;5078794;28;698;-44
2022/02/02 02:56:56;;;;;;;;;;;;;;;27.33;20.17;99876.69;5073422;28;1981;-44
2022/02/02 02:59:34;;;;;;;;;;;;;;;27.06;20.20;99879.34;5074298;28;859;-44
2022/02/02 03:02:38;;;;;;;;;;;;;;;26.88;20.50;99880.69;5078484;28;801;-44
2022/02/02 03:59:03;;;;;;;;;;;;;;;30.87;16.29;99829.16;5076452;28;1964;-45
2022/02/02 04:01:52;;;;;;;;;;;;;;;31.02;16.10;99842.31;5076830;28;814;-45
2022/02/02 04:07:11;;;;;;;;;;;;;;;30.98;16.18;99843.84;5076756;28;793;-45
2022/02/02 04:09:38;;;;;;;;;;;;;;;31.00;16.00;99846.31;5076772;28;842;-45
2022/02/02 04:55:54;;;;;;;;;;;;;;;28.74;15.76;99869.44;5069226;28;1480;-44
2022/02/02 05:08:39;;;;;;;;;;;;;;;30.00;16.25;99864.41;5074934;28;993;-42
2022/02/02 05:11:19;;;;;;;;;;;;;;;30.02;16.21;99866.88;5070896;28;813;-42
2022/02/02 05:50:58;;;;;;;;;;;;;;;29.66;17.56;99867.41;5060492;28;718;-46
2022/02/02 05:53:23;;;;;;;;;;;;;;;29.70;17.49;99859.66;5076066;28;773;-46
2022/02/02 05:55:49;;;;;;;;;;;;;;;29.50;17.78;99863.34;5074513;28;1381;-46
2022/02/02 05:58:14;;;;;;;;;;;;;;;29.28;17.99;99868.34;5073998;28;1963;-47
2022/02/02 06:00:39;;;;;;;;;;;;;;;29.25;18.21;99864.16;5072660;28;1433;-46
2022/02/02 06:03:08;;;;;;;;;;;;;;;29.31;17.98;99876.81;5070652;28;1235;-45
2022/02/02 06:05:34;;;;;;;;;;;;;;;29.33;18.27;99868.47;5075187;28;1406;-46
2022/02/02 06:08:01;;;;;;;;;;;;;;;29.37;18.30;99864.28;5075018;28;1509;-45
2022/02/02 06:10:26;;;;;;;;;;;;;;;29.29;18.40;99867.28;5075932;28;801;-46
2022/02/02 06:12:52;;;;;;;;;;;;;;;29.00;18.05;99873.06;5075999;28;750;-44
2022/02/02 06:15:18;;;;;;;;;;;;;;;28.60;18.70;99860.53;5073270;28;1477;-45
2022/02/02 06:17:48;;;;;;;;;;;;;;;28.34;18.67;99865.03;5075249;28;1910;-45
2022/02/02 06:20:13;;;;;;;;;;;;;;;27.67;19.69;99868.59;5076146;28;841;-42
2022/02/02 06:22:43;;;;;;;;;;;;;;;27.55;20.39;99871.94;5078968;28;1134;-43
2022/02/02 06:25:28;;;;;;;;;;;;;;;30.31;17.53;99878.91;5073267;28;762;-44
2022/02/02 06:27:58;;;;;;;;;;;;;;;28.41;18.99;99887.44;5071190;28;1285;-43
2022/02/02 06:30:23;;;;;;;;;;;;;;;27.69;19.49;99880.91;5072470;28;1286;-44
2022/02/02 06:32:52;;;;;;;;;;;;;;;27.18;20.00;99879.56;5076617;28;1457;-43
2022/02/02 06:35:19;;;;;;;;;;;;;;;26.83;20.17;99883.16;5078588;28;1418;-43
2022/02/02 06:37:44;;;;;;;;;;;;;;;26.87;19.55;99884.44;5077479;28;1977;-43
2022/02/02 06:40:10;;;;;;;;;;;;;;;26.72;20.22;99895.38;5075937;28;1191;-43
2022/02/02 06:42:35;;;;;;;;;;;;;;;26.63;20.21;99892.84;5075954;28;1441;-43
2022/02/02 06:45:01;;;;;;;;;;;;;;;26.40;20.85;99893.16;5057074;28;1344;-44
2022/02/02 06:47:26;;;;;;;;;;;;;;;26.52;20.79;99893.44;5060354;28;1439;-44
2022/02/02 06:49:52;;;;;;;;;;;;;;;26.21;20.71;99895.50;5056577;28;1402;-45
2022/02/02 06:52:23;;;;;;;;;;;;;;;25.92;21.22;99894.69;5074891;28;797;-45
2022/02/02 06:54:57;;;;;;;;;;;;;;;26.02;20.93;99895.19;5057060;28;1506;-44
2022/02/02 06:57:35;;;;;;;;;;;;;;;25.99;21.06;99902.84;5078796;28;1890;-44
2022/02/02 07:00:13;;;;;;;;;;;;;;;26.37;20.78;99902.50;5078465;28;879;-43
2022/02/02 07:10:33;;;;;;;;;;;;;;;28.87;17.64;99928.09;5078708;28;887;-43
2022/02/02 07:13:19;;;;;;;;;;;;;;;29.46;17.26;99925.28;5054551;28;1291;-43
2022/02/02 07:16:07;;;;;;;;;;;;;;;29.54;17.13;99928.78;5077812;28;888;-43
2022/02/02 07:29:41;;;;;;;;;;;;;;;29.72;17.35;99921.78;5071708;28;1190;-44
2022/02/02 07:34:02;;;;;;;;;;;;;;;29.84;17.52;99924.63;5077522;28;1191;-44
2022/02/02 07:36:33;;;;;;;;;;;;;;;29.92;17.19;99913.50;5077988;28;813;-44
2022/02/02 07:38:58;;;;;;;;;;;;;;;29.90;17.20;99919.13;5074153;28;1898;-44
2022/02/02 07:41:25;;;;;;;;;;;;;;;29.55;17.52;99911.47;5074064;28;1410;-44
2022/02/02 07:43:51;;;;;;;;;;;;;;;29.33;17.62;99909.94;5055158;28;1647;-43
2022/02/02 07:46:19;;;;;;;;;;;;;;;29.28;17.99;99907.06;5070297;28;1260;-46
2022/02/02 07:48:44;;;;;;;;;;;;;;;29.40;17.95;99914.47;5066948;28;1258;-45
2022/02/02 07:51:10;;;;;;;;;;;;;;;29.38;18.02;99903.88;5046303;28;1685;-45
2022/02/02 07:53:49;;;;;;;;;;;;;;;29.40;17.97;99901.78;5067242;28;1165;-46
2022/02/02 07:56:17;;;;;;;;;;;;;;;29.37;18.04;99904.09;5066233;28;1243;-44
2022/02/02 07:58:46;;;;;;;;;;;;;;;29.56;18.10;99894.16;5053426;28;1898;-42
2022/02/02 08:01:14;;;;;;;;;;;;;;;29.65;18.12;99900.16;5051289;28;1379;-41
2022/02/02 08:03:43;;;;;;;;;;;;;;;29.65;18.24;99895.56;5064818;28;1287;-42
2022/02/02 08:06:09;;;;;;;;;;;;;;;29.73;18.36;99899.06;5070466;28;1272;-42
2022/02/02 08:08:36;;;;;;;;;;;;;;;29.80;18.11;99897.94;5071670;28;1203;-42
2022/02/02 08:11:06;;;;;;;;;;;;;;;29.82;18.30;99905.88;5075596;28;1192;-44
2022/02/02 08:13:41;;;;;;;;;;;;;;;29.78;18.04;99904.66;5077474;28;864;-42
2022/02/02 08:16:09;;;;;;;;;;;;;;;29.63;18.16;99905.00;5068836;28;1347;-40
2022/02/02 08:18:37;;;;;;;;;;;;;;;29.73;18.07;99907.22;5068759;28;1902;-43
2022/02/02 08:21:02;;;;;;;;;;;;;;;29.84;18.16;99906.47;5071253;28;1394;-45
2022/02/02 08:23:28;;;;;;;;;;;;;;;29.85;18.10;99901.88;5073527;28;1445;-45
2022/02/02 08:25:56;;;;;;;;;;;;;;;29.91;17.89;99893.66;5068929;28;1288;-46
2022/02/02 08:28:23;;;;;;;;;;;;;;;29.92;17.96;99880.94;5076011;28;1282;-46
2022/02/02 08:30:49;;;;;;;;;;;;;;;29.78;18.18;99891.09;5072137;28;789;-48
2022/02/02 08:33:19;;;;;;;;;;;;;;;29.54;18.03;99880.00;5075666;28;794;-48
2022/02/02 08:35:50;;;;;;;;;;;;;;;29.55;17.92;99895.19;5070203;28;1212;-43
2022/02/02 08:40:52;;;;;;;;;;;;;;;29.90;17.63;99894.72;5064909;28;1397;-43
2022/02/02 08:43:25;;;;;;;;;;;;;;;29.94;17.73;99893.25;5066711;28;1342;-45
2022/02/02 08:45:53;;;;;;;;;;;;;;;29.97;17.74;99897.38;5078002;28;1303;-48
2022/02/02 08:48:24;;;;;;;;;;;;;;;29.83;18.01;99899.38;5071416;28;1321;-48
2022/02/02 08:50:54;;;;;;;;;;;;;;;29.48;18.21;99900.66;5067050;28;1212;-47
2022/02/02 08:58:29;;;;;;;;;;;;;;;28.79;18.24;99782.19;5067884;28;1898;-36
2022/02/02 09:00:55;;;;;;;;;;;;;;;29.71;18.25;99904.72;5071585;28;1240;-35
2022/02/02 09:06:04;;;;;;;;;;;;;;;29.77;18.28;99911.94;5068497;28;1434;-33
2022/02/02 09:08:31;;;;;;;;;;;;;;;29.76;18.27;99915.69;5068183;28;1481;-37
2022/02/02 09:24:26;;;;;;;;;;;;;;;29.96;18.20;99930.16;5074315;28;1322;-36
2022/02/02 09:32:52;;;;;;;;;;;;;;;29.51;18.34;99923.81;5075253;28;670;-35
2022/02/02 09:34:58;;;;;;;;;;;;;;;29.55;18.04;99927.72;5062898;28;1515;-35
2022/02/02 09:37:25;;;;;;;;;;;;;;;29.66;17.86;99927.03;5071829;28;1894;-35
2022/02/02 09:40:03;;;;;;;;;;;;;;;29.74;17.95;99916.97;5065326;28;1375;-35
2022/02/02 09:42:28;;;;;;;;;;;;;;;29.80;17.96;99910.66;5076000;28;781;-35
2022/02/02 09:44:57;;;;;;;;;;;;;;;29.79;18.12;99907.16;5053819;28;1173;-35
2022/02/02 09:47:31;;;;;;;;;;;;;;;29.77;17.91;99900.28;5068400;28;1560;-34
2022/02/02 09:50:11;;;;;;;;;;;;;;;29.76;17.88;99893.19;5066643;28;1472;-35
2022/02/02 09:52:41;;;;;;;;;;;;;;;29.73;17.80;99889.03;5073260;28;1199;-34
2022/02/02 09:55:20;;;;;;;;;;;;;;;29.65;17.85;99882.03;5061874;28;1281;-34
2022/02/02 10:03:02;;;;;;;;;;;;;;;29.82;17.89;99876.88;5072350;28;1304;-36
2022/02/02 10:05:35;;;;;;;;;;;;;;;29.88;17.71;99871.63;5073188;28;1411;-35
2022/02/02 10:15:43;;;;;;;;;;;;;;;29.58;18.25;99882.03;5068984;28;1335;-37
2022/02/02 10:18:13;;;;;;;;;;;;;;;29.67;18.09;99881.81;5067545;28;1985;-35
2022/02/02 10:20:39;;;;;;;;;;;;;;;29.60;18.13;99875.59;5069780;28;1358;-36
2022/02/02 10:23:04;;;;;;;;;;;;;;;29.65;18.07;99884.75;5069205;28;1568;-37
2022/02/02 10:25:31;;;;;;;;;;;;;;;29.57;18.16;99879.56;5077256;28;803;-36
2022/02/02 10:28:06;;;;;;;;;;;;;;;29.57;18.09;99869.56;5056387;28;1419;-35
2022/02/02 10:30:31;;;;;;;;;;;;;;;29.38;18.25;99867.84;5071461;28;880;-35
2022/02/02 10:32:56;;;;;;;;;;;;;;;29.34;18.43;99862.84;5068408;28;1370;-38
2022/02/02 10:35:29;;;;;;;;;;;;;;;29.40;18.21;99871.13;5071772;28;1891;-38
2022/02/02 10:37:58;;;;;;;;;;;;;;;29.36;18.30;99870.78;5070989;28;1931;-38
2022/02/02 10:40:43;;;;;;;;;;;;;;;29.48;18.13;99868.16;5076284;28;1417;-33
2022/02/02 10:43:21;;;;;;;;;;;;;;;29.81;17.78;99869.78;5073923;28;1537;-35
2022/02/02 10:45:46;;;;;;;;;;;;;;;29.97;17.93;99864.84;5076616;28;1168;-34
2022/02/02 10:48:22;;;;;;;;;;;;;;;30.03;17.80;99865.84;5072828;28;1263;-36
2022/02/02 10:50:58;;;;;;;;;;;;;;;30.08;17.65;99865.97;5075025;28;1250;-37
2022/02/02 11:01:31;;;;;;;;;;;;;;;30.08;17.90;99868.69;5069039;28;973;-37
2022/02/02 11:06:38;;;;;;;;;;;;;;;30.00;17.85;99855.41;5074547;28;1164;-40
2022/02/02 11:09:04;;;;;;;;;;;;;;;29.49;18.21;99856.28;5076433;28;1343;-38
2022/02/02 11:11:30;;;;;;;;;;;;;;;29.41;18.42;99861.97;5072181;28;1442;-37
2022/02/02 11:14:02;;;;;;;;;;;;;;;29.72;17.68;99864.88;5072662;28;1344;-38
2022/02/02 11:16:30;;;;;;;;;;;;;;;29.08;18.15;99866.56;5071540;28;1714;-37
2022/02/02 11:18:55;;;;;;;;;;;;;;;28.80;18.60;99857.75;5073505;28;1969;-37
2022/02/02 11:21:21;;;;;;;;;;;;;;;28.54;19.97;99851.44;5071500;28;1331;-37
2022/02/02 11:23:50;;;;;;;;;;;;;;;28.36;19.89;99844.00;5047511;28;1312;-35
2022/02/02 11:26:34;;;;;;;;;;;;;;;30.80;17.13;99844.72;5048732;28;1200;-36
2022/02/02 11:28:59;;;;;;;;;;;;;;;28.58;19.13;99841.81;5075447;28;1114;-36
2022/02/02 11:31:24;;;;;;;;;;;;;;;28.16;19.74;99836.72;5078410;28;1284;-35
2022/02/02 11:33:53;;;;;;;;;;;;;;;27.86;19.88;99829.13;5071896;28;1545;-36
2022/02/02 11:36:29;;;;;;;;;;;;;;;27.58;20.34;99833.69;5070919;28;1319;-35
2022/02/02 11:38:56;;;;;;;;;;;;;;;27.27;20.80;99821.66;5072626;28;1960;-35
2022/02/02 11:41:40;;;;;;;;;;;;;;;27.12;21.26;99819.97;5075618;28;1252;-36
2022/02/02 11:46:40;;;;;;;;;;;;;;;27.21;20.88;99823.28;5064839;28;1436;-35
2022/02/02 11:49:14;;;;;;;;;;;;;;;26.98;21.45;99815.53;5073372;28;1413;-36
2022/02/02 11:51:50;;;;;;;;;;;;;;;26.77;21.73;99815.53;5073804;28;1164;-34
2022/02/02 11:54:19;;;;;;;;;;;;;;;26.79;22.03;99809.91;5071073;28;1228;-38
2022/02/02 11:59:53;;;;;;;;;;;;;;;26.56;22.01;99824.56;5059921;28;1961;-35
2022/02/02 12:02:34;;;;;;;;;;;;;;;27.00;21.73;99822.41;5074334;28;1173;-34
2022/02/02 12:07:50;;;;;;;;;;;;;;;29.07;19.47;99821.59;5067632;28;1327;-34
2022/02/02 12:10:34;;;;;;;;;;;;;;;29.06;19.64;99819.94;5070890;28;1091;-33
2022/02/02 12:19:36;;;;;;;;;;;;;;;29.64;18.73;99818.03;5068413;28;1973;-36
2022/02/02 12:45:01;;;;;;;;;;;;;;;29.89;18.19;99828.00;5064093;28;1330;-37
2022/02/02 12:49:40;;;;;;;;;;;;;;;30.01;18.18;99843.53;5068155;28;1272;-36
2022/02/02 12:57:20;;;;;;;;;;;;;;;30.20;18.14;99847.09;5069012;28;1898;-38
2022/02/02 13:02:14;;;;;;;;;;;;;;;30.19;18.06;99846.25;5067469;28;1204;-35
2022/02/02 13:04:40;;;;;;;;;;;;;;;30.28;18.12;99852.22;5070974;28;1378;-35
2022/02/02 13:07:07;;;;;;;;;;;;;;;30.26;18.31;99853.53;5068617;28;1212;-39
2022/02/02 13:09:32;;;;;;;;;;;;;;;30.24;17.92;99861.88;5071824;28;1397;-39
2022/02/02 13:11:57;;;;;;;;;;;;;;;30.26;18.12;99864.38;5065048;28;1501;-36
2022/02/02 13:14:34;;;;;;;;;;;;;;;30.38;17.91;99870.69;5067116;28;1576;-35
2022/02/02 13:17:01;;;;;;;;;;;;;;;30.51;17.88;99866.97;5070426;28;1426;-36
2022/02/02 13:19:31;;;;;;;;;;;;;;;30.59;17.84;99862.31;5066844;28;1902;-37
2022/02/02 13:22:07;;;;;;;;;;;;;;;30.67;17.92;99859.28;5052973;28;1592;-37
2022/02/02 13:24:32;;;;;;;;;;;;;;;30.77;17.87;99853.28;5069514;28;1400;-37
2022/02/02 13:27:15;;;;;;;;;;;;;;;30.83;17.60;99859.75;5067360;28;1355;-37
2022/02/02 13:29:51;;;;;;;;;;;;;;;30.88;17.80;99854.44;5074361;28;1505;-36
2022/02/02 13:32:38;;;;;;;;;;;;;;;30.91;17.70;99846.66;5074495;28;1160;-41
2022/02/02 13:35:14;;;;;;;;;;;;;;;30.37;17.74;99850.03;5067278;28;1212;-40
2022/02/02 13:42:59;;;;;;;;;;;;;;;30.05;18.31;99853.72;5067758;28;1501;-37
2022/02/02 13:53:35;;;;;;;;;;;;;;;29.64;18.92;99860.56;5071768;28;781;-38
2022/02/02 14:01:10;;;;;;;;;;;;;;;29.89;18.49;99847.00;5065008;28;1156;-36
2022/02/02 14:33:18;;;;;;;;;;;;;;;30.34;17.77;99833.38;5071198;28;1242;-42
2022/02/02 14:35:47;;;;;;;;;;;;;;;30.30;17.76;99841.16;5072407;28;1406;-41
2022/02/02 14:38:14;;;;;;;;;;;;;;;30.25;17.70;99841.00;5074551;28;1956;-39
2022/02/02 14:41:32;;;;;;;;;;;;;;;30.16;17.90;99843.16;5072531;28;1434;-41
2022/02/02 14:43:38;;;;;;;;;;;;;;;30.20;17.85;99841.69;5050930;28;1364;-37
2022/02/02 14:46:06;;;;;;;;;;;;;;;30.19;17.88;99850.84;5072938;28;1260;-36
2022/02/02 14:48:36;;;;;;;;;;;;;;;30.23;17.96;99853.97;5077811;28;1619;-32
2022/02/02 15:05:18;;;;;;;;;;;;;;;30.15;18.00;99847.75;5072908;28;1505;-36
2022/02/02 15:28:17;;;;;;;;;;;;;;;30.70;17.29;99856.09;5077237;28;1524;-35
2022/02/02 15:30:50;;;;;;;;;;;;;;;30.49;17.42;99868.28;5070137;28;1454;-38
2022/02/02 15:33:20;;;;;;;;;;;;;;;30.16;17.77;99867.59;5077684;28;860;-37
2022/02/02 15:35:46;;;;;;;;;;;;;;;29.92;18.25;99857.38;5074902;28;1147;-39
2022/02/02 15:38:21;;;;;;;;;;;;;;;29.87;18.28;99868.06;5076496;28;1957;-37
2022/02/02 15:40:52;;;;;;;;;;;;;;;30.07;18.01;99861.63;5077029;28;896;-38
2022/02/02 15:43:38;;;;;;;;;;;;;;;30.14;17.87;99861.53;5076729;28;885;-37
2022/02/02 16:02:30;;;;;;;;;;;;;;;28.14;19.80;99871.28;5074738;28;1187;-45
2022/02/02 16:04:57;;;;;;;;;;;;;;;28.35;19.86;99870.22;5075251;28;1354;-44
2022/02/02 16:07:26;;;;;;;;;;;;;;;28.44;19.51;99869.97;5076147;28;1331;-45
2022/02/02 16:09:55;;;;;;;;;;;;;;;28.42;19.52;99872.06;5075686;28;1497;-44
2022/02/02 16:14:48;;;;;;;;;;;;;;;28.32;19.55;99880.59;5066244;28;800;-42
2022/02/02 16:25:27;;;;;;;;;;;;;;;27.87;20.26;99888.38;5073733;28;768;-43
2022/02/02 16:36:09;;;;;;;;;;;;;;;29.85;18.51;99885.59;5072855;28;1198;-43
2022/02/02 16:38:38;;;;;;;;;;;;;;;29.28;19.00;99884.59;5072046;28;1898;-44
2022/02/02 16:42:54;;;;;;;;;;;;;;;29.20;19.25;99889.19;5075819;28;833;-43
2022/02/02 16:43:49;;;;;;;;;;;;;;;29.15;19.16;99888.19;5069059;28;801;-44
2022/02/02 16:46:14;;;;;;;;;;;;;;;29.14;18.82;99890.09;5070426;28;885;-44
2022/02/02 16:48:40;;;;;;;;;;;;;;;29.34;18.36;99891.81;5074308;28;1347;-43
2022/02/02 16:51:06;;;;;;;;;;;;;;;29.48;18.48;99897.16;5073421;28;1366;-41
2022/02/02 16:53:43;;;;;;;;;;;;;;;29.81;18.02;99890.66;5075431;28;1386;-43
2022/02/02 16:56:24;;;;;;;;;;;;;;;29.73;17.80;99882.81;5075585;28;806;-42
2022/02/02 17:31:56;;;;;;;;;;;;;;;29.65;18.05;99903.72;5075627;28;698;-42
2022/02/02 17:34:49;;;;;;;;;;;;;;;29.76;18.10;99898.63;5075112;28;873;-40
2022/02/02 17:37:37;;;;;;;;;;;;;;;29.88;17.89;99904.16;5074877;28;1412;-40
2022/02/02 18:12:15;;;;;;;;;;;;;;;29.70;18.36;99930.13;5013045;28;1131;-41
2022/02/02 18:20:01;;;;;;;;;;;;;;;29.19;18.97;99930.88;5076977;28;797;-39
2022/02/02 18:22:34;;;;;;;;;;;;;;;29.02;19.05;99938.69;5079112;28;861;-42
2022/02/02 18:25:17;;;;;;;;;;;;;;;29.01;19.25;99936.19;5079173;28;787;-38
2022/02/02 18:28:01;;;;;;;;;;;;;;;28.01;19.99;99939.69;5078757;28;755;-37
2022/02/02 18:35:24;;;;;;;;;;;;;;;26.71;21.93;99947.69;5078434;28;781;-39
2022/02/02 18:43:53;;;;;;;;;;;;;;;27.80;20.17;99952.41;5077358;28;1683;-39
2022/02/02 18:58:53;;;;;;;;;;;;;;;26.23;21.60;99941.97;5078134;28;1898;-35
2022/02/02 19:01:34;;;;;;;;;;;;;;;25.99;21.75;99935.97;5078549;28;778;-35
2022/02/02 20:03:50;;;;;;;;;;;;;;;29.89;17.57;99919.34;5059398;28;773;-37
2022/02/02 20:11:39;;;;;;;;;;;;;;;29.82;17.77;99928.38;5076681;28;591;-38
2022/02/02 20:14:05;;;;;;;;;;;;;;;29.78;17.72;99931.78;5074594;28;858;-38
2022/02/02 20:16:30;;;;;;;;;;;;;;;29.81;17.73;99926.72;5075928;28;1110;-38
2022/02/02 20:18:58;;;;;;;;;;;;;;;29.84;17.86;99927.31;5076796;28;1969;-38
2022/02/02 20:21:28;;;;;;;;;;;;;;;29.87;17.89;99927.72;5076813;28;858;-38
2022/02/02 20:23:53;;;;;;;;;;;;;;;29.85;17.76;99940.66;5076568;28;861;-37
2022/02/02 20:26:22;;;;;;;;;;;;;;;29.85;17.70;99937.94;5076702;28;773;-38
2022/02/02 20:28:47;;;;;;;;;;;;;;;29.92;17.87;99937.88;5073605;28;900;-37
2022/02/02 20:31:13;;;;;;;;;;;;;;;29.91;17.82;99947.09;5076516;28;774;-37
2022/02/02 20:33:38;;;;;;;;;;;;;;;29.89;17.76;99951.91;5076825;28;771;-39
2022/02/02 20:36:04;;;;;;;;;;;;;;;29.92;17.64;99943.31;5076205;28;826;-38
2022/02/02 20:38:29;;;;;;;;;;;;;;;29.96;17.56;99955.38;5076424;28;1897;-37
2022/02/02 20:40:55;;;;;;;;;;;;;;;29.93;17.77;99961.22;5069495;28;884;-35
2022/02/02 20:46:24;;;;;;;;;;;;;;;29.88;17.69;99980.06;5070531;28;765;-36
2022/02/02 21:05:20;;;;;;;;;;;;;;;29.80;17.76;99981.16;5076344;28;804;-37
2022/02/02 21:10:16;;;;;;;;;;;;;;;29.74;18.12;99990.16;5076010;28;766;-38
2022/02/02 21:15:28;;;;;;;;;;;;;;;27.89;19.75;99985.47;5072680;28;691;-36
2022/02/02 21:17:55;;;;;;;;;;;;;;;27.98;20.07;99983.38;5074465;28;1914;-37
2022/02/02 21:20:30;;;;;;;;;;;;;;;29.27;18.60;99981.25;5073912;28;846;-37
2022/02/02 21:23:04;;;;;;;;;;;;;;;29.84;17.87;99985.09;5075601;28;871;-37
2022/02/02 21:25:34;;;;;;;;;;;;;;;29.17;18.38;99984.44;5058736;28;858;-37
2022/02/02 21:28:01;;;;;;;;;;;;;;;29.00;18.76;99986.78;5075851;28;809;-37
2022/02/02 21:30:28;;;;;;;;;;;;;;;29.08;18.82;99991.13;5072211;28;876;-37
2022/02/02 21:32:54;;;;;;;;;;;;;;;29.00;18.87;99992.19;5073720;28;754;-36
2022/02/02 21:35:19;;;;;;;;;;;;;;;28.84;18.88;99988.88;5074459;28;908;-37
2022/02/02 21:37:47;;;;;;;;;;;;;;;28.83;18.96;99994.50;5073969;28;1890;-36
2022/02/02 21:42:46;;;;;;;;;;;;;;;28.98;19.00;99991.56;5074296;28;769;-38
2022/02/02 21:45:12;;;;;;;;;;;;;;;29.01;19.10;99991.16;5074469;28;868;-37
2022/02/02 21:47:37;;;;;;;;;;;;;;;29.06;18.89;99987.81;5075559;28;825;-37
2022/02/02 21:50:08;;;;;;;;;;;;;;;28.93;18.92;100000.31;5076285;28;827;-37
2022/02/02 21:52:34;;;;;;;;;;;;;;;28.77;19.50;99992.66;5079237;28;872;-37
2022/02/02 21:54:59;;;;;;;;;;;;;;;28.86;19.38;99999.53;5078997;28;822;-36
2022/02/02 21:57:24;;;;;;;;;;;;;;;28.92;19.24;99998.66;5079197;28;758;-37
2022/02/02 21:59:50;;;;;;;;;;;;;;;28.95;19.18;99992.81;5075051;28;1901;-37
2022/02/02 22:02:15;;;;;;;;;;;;;;;28.92;19.08;99993.25;5078746;28;1016;-37
2022/02/02 22:04:40;;;;;;;;;;;;;;;28.95;19.26;99998.25;5079673;28;765;-37
2022/02/02 22:07:05;;;;;;;;;;;;;;;28.80;19.15;100006.59;5079633;28;738;-37
2022/02/02 22:09:31;;;;;;;;;;;;;;;29.02;19.08;99994.69;5076359;28;817;-37
2022/02/02 22:11:56;;;;;;;;;;;;;;;28.87;19.20;99998.47;5079460;28;907;-37
2022/02/02 22:14:23;;;;;;;;;;;;;;;28.83;19.52;99983.69;5076244;28;1026;-37
2022/02/02 22:16:50;;;;;;;;;;;;;;;28.16;19.92;99979.22;5078307;28;1157;-37
2022/02/02 22:19:15;;;;;;;;;;;;;;;27.45;20.60;99979.53;5079210;28;1910;-37
2022/02/02 22:21:40;;;;;;;;;;;;;;;27.18;20.56;99980.28;5077208;28;853;-36
2022/02/02 22:24:06;;;;;;;;;;;;;;;26.94;21.17;99977.06;5074468;28;769;-36
2022/02/02 22:26:31;;;;;;;;;;;;;;;26.90;21.46;99973.09;5078994;28;791;-36
2022/02/02 22:28:56;;;;;;;;;;;;;;;28.35;20.30;99989.22;5078169;28;883;-37
2022/02/02 22:31:22;;;;;;;;;;;;;;;27.75;20.46;99984.59;5078417;28;924;-36
2022/02/02 22:33:47;;;;;;;;;;;;;;;26.80;21.33;99980.72;5078773;28;802;-36
2022/02/02 22:36:13;;;;;;;;;;;;;;;26.39;21.86;99985.88;5077806;28;836;-36
2022/02/02 22:38:40;;;;;;;;;;;;;;;26.23;22.07;99989.66;5078575;28;1898;-36
2022/02/02 22:41:05;;;;;;;;;;;;;;;26.04;22.52;99986.63;5072023;28;822;-36
2022/02/02 22:43:33;;;;;;;;;;;;;;;25.92;22.49;99992.50;5078370;28;870;-36
2022/02/02 22:45:59;;;;;;;;;;;;;;;25.82;22.78;100002.81;5071853;28;856;-37
2022/02/02 22:48:25;;;;;;;;;;;;;;;25.74;22.74;100003.75;5078242;28;820;-36
2022/02/02 22:50:51;;;;;;;;;;;;;;;25.61;22.86;100003.59;5078376;28;786;-37
2022/02/02 22:53:20;;;;;;;;;;;;;;;25.55;22.97;99999.81;5078376;28;910;-36
2022/02/02 22:55:46;;;;;;;;;;;;;;;25.48;23.26;99997.03;5078385;28;789;-36
2022/02/02 22:58:11;;;;;;;;;;;;;;;25.42;23.25;99998.63;5078340;28;1963;-36
2022/02/02 23:00:38;;;;;;;;;;;;;;;25.30;23.29;100001.00;5073332;28;908;-36
2022/02/02 23:03:04;;;;;;;;;;;;;;;25.20;23.51;99992.38;5077236;28;825;-35
2022/02/02 23:05:42;;;;;;;;;;;;;;;25.14;23.60;99996.63;5077785;28;821;-36
2022/02/02 23:08:08;;;;;;;;;;;;;;;26.03;22.69;100003.81;5078564;28;853;-36
2022/02/02 23:10:35;;;;;;;;;;;;;;;27.07;21.28;100000.63;5078147;28;805;-36
2022/02/02 23:13:00;;;;;;;;;;;;;;;27.62;20.39;99999.75;5077534;28;825;-36
2022/02/02 23:15:34;;;;;;;;;;;;;;;27.31;20.73;99993.00;5074133;28;872;-36
2022/02/02 23:18:08;;;;;;;;;;;;;;;27.31;20.70;99997.59;5077621;28;1993;-36
2022/02/02 23:20:33;;;;;;;;;;;;;;;27.38;20.98;99995.72;5078150;28;830;-36
2022/02/02 23:23:01;;;;;;;;;;;;;;;27.54;20.66;100007.19;5078043;28;738;-36
2022/02/02 23:25:27;;;;;;;;;;;;;;;27.55;20.57;99998.03;5077390;28;1071;-36
2022/02/02 23:27:52;;;;;;;;;;;;;;;27.63;20.48;100006.81;5077464;28;818;-36
2022/02/02 23:30:20;;;;;;;;;;;;;;;27.71;20.58;100005.81;5076479;28;807;-36
2022/02/02 23:32:45;;;;;;;;;;;;;;;27.73;20.50;100001.03;5077941;28;816;-36
2022/02/02 23:35:11;;;;;;;;;;;;;;;27.66;20.49;100002.03;5077889;28;806;-36
2022/02/02 23:37:39;;;;;;;;;;;;;;;27.71;20.50;99997.69;5077179;28;1901;-35
2022/02/02 23:40:06;;;;;;;;;;;;;;;27.87;20.23;100003.75;5077244;28;757;-36
2022/02/02 23:42:36;;;;;;;;;;;;;;;27.89;20.50;99995.44;5077444;28;727;-35
2022/02/02 23:45:01;;;;;;;;;;;;;;;27.95;20.32;99995.44;5070774;28;777;-36
2022/02/02 23:47:28;;;;;;;;;;;;;;;27.86;20.38;100012.91;5060044;28;806;-36